Time;durP1;ratioP1;P1;durP2;ratioP2;P2;SDS_P1;SDS_P2;PMS_P1;PMS_P2;Temp;Humidity;BMP_temperature;BMP_pressure;BME280_temperature;BME280_humidity;BME280_pressure;Samples;Min_cycle;Max_cycle;Signal;HPM_P1;HPM_P2
2022/03/25 00:01:31;;;;;;;;;;;10.60;99.90;;;;;;5008455;28;20379;-79
2022/03/25 00:03:57;;;;;;;;;;;10.50;99.90;;;;;;5008822;28;19922;-80
2022/03/25 00:06:23;;;;;;;;;;;10.50;99.90;;;;;;5009842;28;20301;-80
2022/03/25 00:08:49;;;;;;;;;;;10.40;99.90;;;;;;5002104;28;19913;-80
2022/03/25 00:11:14;;;;;;;;;;;10.40;99.90;;;;;;5005194;28;20454;-79
2022/03/25 00:13:40;;;;;;;;;;;10.40;99.90;;;;;;5006121;28;19924;-80
2022/03/25 00:16:06;;;;;;;;;;;10.30;99.90;;;;;;5005460;28;19925;-80
2022/03/25 00:18:32;;;;;;;;;;;10.30;99.90;;;;;;5018047;28;19971;-80
2022/03/25 00:20:58;;;;;;;;;;;10.30;99.90;;;;;;5005029;28;19923;-82
2022/03/25 00:23:23;;;;;;;;;;;10.30;99.90;;;;;;5007235;28;19921;-80
2022/03/25 00:25:48;;;;;;;;;;;10.30;99.90;;;;;;5010818;28;19920;-80
2022/03/25 00:28:14;;;;;;;;;;;10.20;99.90;;;;;;5014018;28;19990;-80
2022/03/25 00:30:39;;;;;;;;;;;10.20;99.90;;;;;;5013626;28;19917;-80
2022/03/25 00:33:05;;;;;;;;;;;10.10;99.90;;;;;;5014121;28;19928;-80
2022/03/25 00:35:31;;;;;;;;;;;10.10;99.90;;;;;;5002166;28;19914;-80
2022/03/25 00:37:58;;;;;;;;;;;10.10;99.90;;;;;;5013987;28;19956;-79
2022/03/25 00:40:23;;;;;;;;;;;10.10;99.90;;;;;;5004201;28;19924;-80
2022/03/25 00:42:49;;;;;;;;;;;10.10;99.90;;;;;;5013015;28;19914;-80
2022/03/25 00:45:14;;;;;;;;;;;10.10;99.90;;;;;;5005623;28;19999;-80
2022/03/25 00:47:40;;;;;;;;;;;10.10;99.90;;;;;;5000594;28;20285;-80
2022/03/25 00:50:06;;;;;;;;;;;10.10;99.90;;;;;;5001775;28;20004;-80
2022/03/25 00:52:31;;;;;;;;;;;10.00;99.90;;;;;;5003176;28;19913;-80
2022/03/25 00:54:57;;;;;;;;;;;10.00;99.90;;;;;;5005426;28;19976;-79
2022/03/25 00:57:23;;;;;;;;;;;9.90;99.90;;;;;;5008745;28;19918;-80
2022/03/25 00:59:48;;;;;;;;;;;9.90;99.90;;;;;;5004570;28;19953;-79
2022/03/25 01:02:14;;;;;;;;;;;9.80;99.90;;;;;;5007360;28;19933;-79
2022/03/25 01:04:40;;;;;;;;;;;9.80;99.90;;;;;;5004457;28;19914;-80
2022/03/25 01:07:05;;;;;;;;;;;9.80;99.90;;;;;;4998903;28;19914;-79
2022/03/25 01:09:30;;;;;;;;;;;9.70;99.90;;;;;;5001601;28;19913;-80
2022/03/25 01:11:56;;;;;;;;;;;9.70;99.90;;;;;;4997342;28;20386;-80
2022/03/25 01:14:21;;;;;;;;;;;9.70;99.90;;;;;;5006280;28;19917;-80
2022/03/25 01:16:47;;;;;;;;;;;9.60;99.90;;;;;;4997875;28;19937;-80
2022/03/25 01:19:13;;;;;;;;;;;9.60;99.90;;;;;;5008762;28;19971;-80
2022/03/25 01:21:39;;;;;;;;;;;9.60;99.90;;;;;;5002982;28;19914;-80
2022/03/25 01:24:05;;;;;;;;;;;9.60;99.90;;;;;;5008816;28;20306;-80
2022/03/25 01:26:30;;;;;;;;;;;9.60;99.90;;;;;;5005024;28;19917;-79
2022/03/25 01:28:56;;;;;;;;;;;9.60;99.90;;;;;;4999845;28;19925;-80
2022/03/25 01:31:21;;;;;;;;;;;9.60;99.90;;;;;;5004947;28;19917;-79
2022/03/25 01:33:47;;;;;;;;;;;9.50;99.90;;;;;;5005237;28;19933;-80
2022/03/25 01:36:13;;;;;;;;;;;9.50;99.90;;;;;;5003023;28;19925;-80
2022/03/25 01:38:39;;;;;;;;;;;9.50;99.90;;;;;;5006140;28;19913;-80
2022/03/25 01:41:04;;;;;;;;;;;9.50;99.90;;;;;;4997866;28;19921;-80
2022/03/25 01:43:30;;;;;;;;;;;9.40;99.90;;;;;;5008193;28;19913;-80
2022/03/25 01:45:55;;;;;;;;;;;9.40;99.90;;;;;;5001922;28;20358;-80
2022/03/25 01:48:21;;;;;;;;;;;9.40;99.90;;;;;;5012551;28;19921;-80
2022/03/25 01:50:47;;;;;;;;;;;9.30;99.90;;;;;;5004668;28;20015;-80
2022/03/25 01:53:14;;;;;;;;;;;9.30;99.90;;;;;;5003089;28;19944;-80
2022/03/25 01:55:47;;;;;;;;;;;9.30;99.90;;;;;;5004839;28;19920;-80
2022/03/25 01:58:13;;;;;;;;;;;9.30;99.90;;;;;;5003544;28;19923;-80
2022/03/25 02:00:38;;;;;;;;;;;9.30;99.90;;;;;;5004339;28;19978;-80
2022/03/25 02:03:04;;;;;;;;;;;9.30;99.90;;;;;;5001851;28;19921;-80
2022/03/25 02:05:29;;;;;;;;;;;9.30;99.90;;;;;;5004935;28;20012;-80
2022/03/25 02:07:55;;;;;;;;;;;9.20;99.90;;;;;;5009428;28;19964;-80
2022/03/25 02:10:21;;;;;;;;;;;9.20;99.90;;;;;;5010817;28;19962;-80
2022/03/25 02:12:46;;;;;;;;;;;9.20;99.90;;;;;;5005318;28;19917;-80
2022/03/25 02:15:12;;;;;;;;;;;9.10;99.90;;;;;;5004428;28;20039;-79
2022/03/25 02:17:38;;;;;;;;;;;9.10;99.90;;;;;;5002587;28;19914;-79
2022/03/25 02:20:08;;;;;;;;;;;9.00;99.90;;;;;;5001500;28;20375;-79
2022/03/25 02:22:37;;;;;;;;;;;9.00;99.90;;;;;;4999079;28;19920;-80
2022/03/25 02:25:06;;;;;;;;;;;8.90;99.90;;;;;;5000406;28;20016;-80
2022/03/25 02:27:32;;;;;;;;;;;8.90;99.90;;;;;;5010503;28;19914;-80
2022/03/25 02:29:57;;;;;;;;;;;8.90;99.90;;;;;;5000315;28;19948;-79
2022/03/25 02:32:23;;;;;;;;;;;8.80;99.90;;;;;;5007263;28;19965;-78
2022/03/25 02:34:48;;;;;;;;;;;8.80;99.90;;;;;;5001455;28;19924;-79
2022/03/25 02:37:14;;;;;;;;;;;8.70;99.90;;;;;;4998257;28;19920;-79
2022/03/25 02:39:39;;;;;;;;;;;8.70;99.90;;;;;;4998189;28;19917;-80
2022/03/25 02:42:05;;;;;;;;;;;8.70;99.90;;;;;;4998396;28;19921;-80
2022/03/25 02:44:30;;;;;;;;;;;8.60;99.90;;;;;;4996513;28;20378;-80
2022/03/25 02:46:56;;;;;;;;;;;8.60;99.90;;;;;;5004199;28;19914;-79
2022/03/25 02:49:21;;;;;;;;;;;8.60;99.90;;;;;;5007458;28;19917;-79
2022/03/25 02:51:47;;;;;;;;;;;8.60;99.90;;;;;;4998933;28;19914;-79
2022/03/25 02:54:12;;;;;;;;;;;8.50;99.90;;;;;;5001052;28;19932;-80
2022/03/25 02:56:38;;;;;;;;;;;8.50;99.90;;;;;;5006579;28;19918;-80
2022/03/25 02:59:03;;;;;;;;;;;8.50;99.90;;;;;;5005601;28;19920;-80
2022/03/25 03:01:29;;;;;;;;;;;8.40;99.90;;;;;;5001821;28;19918;-80
2022/03/25 03:03:54;;;;;;;;;;;8.40;99.90;;;;;;4998718;28;19921;-79
2022/03/25 03:06:20;;;;;;;;;;;8.40;99.90;;;;;;5000461;28;19961;-79
2022/03/25 03:08:45;;;;;;;;;;;8.40;99.90;;;;;;5010449;28;20275;-80
2022/03/25 03:11:11;;;;;;;;;;;8.30;99.90;;;;;;5002670;28;19922;-79
2022/03/25 03:13:38;;;;;;;;;;;8.30;99.90;;;;;;5002305;28;19925;-79
2022/03/25 03:16:04;;;;;;;;;;;8.30;99.90;;;;;;5013748;28;20289;-80
2022/03/25 03:18:30;;;;;;;;;;;8.20;99.90;;;;;;5016591;28;19923;-79
2022/03/25 03:20:55;;;;;;;;;;;8.20;99.90;;;;;;5008155;28;19944;-80
2022/03/25 03:23:21;;;;;;;;;;;8.20;99.90;;;;;;5015075;28;19936;-80
2022/03/25 03:25:46;;;;;;;;;;;8.10;99.90;;;;;;5014802;28;19913;-80
2022/03/25 03:28:13;;;;;;;;;;;8.10;99.90;;;;;;5013451;28;19929;-79
2022/03/25 03:30:38;;;;;;;;;;;8.10;99.90;;;;;;5008649;28;19917;-80
2022/03/25 03:33:04;;;;;;;;;;;8.00;99.90;;;;;;5014974;28;20012;-80
2022/03/25 03:35:31;;;;;;;;;;;8.00;99.90;;;;;;5012947;28;19914;-80
2022/03/25 03:37:56;;;;;;;;;;;8.00;99.90;;;;;;5008653;28;19969;-80
2022/03/25 03:40:22;;;;;;;;;;;7.90;99.90;;;;;;5002348;28;19972;-80
2022/03/25 03:42:47;;;;;;;;;;;7.90;99.90;;;;;;5005886;28;19920;-79
2022/03/25 03:45:14;;;;;;;;;;;7.90;99.90;;;;;;5002815;28;19917;-79
2022/03/25 03:47:40;;;;;;;;;;;7.90;99.90;;;;;;5003191;28;19914;-79
2022/03/25 03:50:06;;;;;;;;;;;7.90;99.90;;;;;;5001316;28;19940;-80
2022/03/25 03:52:31;;;;;;;;;;;7.80;99.90;;;;;;4999243;28;19920;-80
2022/03/25 03:54:57;;;;;;;;;;;7.80;99.90;;;;;;5004504;28;19968;-80
2022/03/25 03:57:23;;;;;;;;;;;7.80;99.90;;;;;;5009357;28;19914;-79
2022/03/25 03:59:54;;;;;;;;;;;7.70;99.90;;;;;;5004964;28;19914;-80
2022/03/25 04:02:20;;;;;;;;;;;7.70;99.90;;;;;;5007127;28;19944;-80
2022/03/25 04:04:46;;;;;;;;;;;7.70;99.90;;;;;;5007233;28;20364;-79
2022/03/25 04:07:11;;;;;;;;;;;7.60;99.90;;;;;;4998576;28;19921;-80
2022/03/25 04:09:37;;;;;;;;;;;7.60;99.90;;;;;;5002560;28;19964;-80
2022/03/25 04:12:02;;;;;;;;;;;7.60;99.90;;;;;;4998389;28;19914;-80
2022/03/25 04:14:28;;;;;;;;;;;7.60;99.90;;;;;;5001179;28;19965;-80
2022/03/25 04:16:54;;;;;;;;;;;7.50;99.90;;;;;;5001615;28;19914;-79
2022/03/25 04:19:19;;;;;;;;;;;7.50;99.90;;;;;;5002816;28;19914;-79
2022/03/25 04:21:44;;;;;;;;;;;7.50;99.90;;;;;;4998580;28;19960;-80
2022/03/25 04:24:10;;;;;;;;;;;7.50;99.90;;;;;;5003102;28;20389;-79
2022/03/25 04:26:35;;;;;;;;;;;7.40;99.90;;;;;;5002808;28;20089;-80
2022/03/25 04:29:02;;;;;;;;;;;7.40;99.90;;;;;;5000463;28;20429;-79
2022/03/25 04:31:27;;;;;;;;;;;7.40;99.90;;;;;;4999501;28;19922;-80
2022/03/25 04:33:53;;;;;;;;;;;7.50;99.90;;;;;;4999190;28;19924;-79
2022/03/25 04:36:18;;;;;;;;;;;7.40;99.90;;;;;;5015549;28;19914;-80
2022/03/25 04:38:44;;;;;;;;;;;7.30;99.90;;;;;;5008866;28;19913;-79
2022/03/25 04:41:10;;;;;;;;;;;7.30;99.90;;;;;;5009131;28;19949;-80
2022/03/25 04:43:36;;;;;;;;;;;7.20;99.90;;;;;;5010287;28;19917;-80
2022/03/25 04:46:01;;;;;;;;;;;7.20;99.90;;;;;;5014226;28;19913;-83
2022/03/25 04:48:27;;;;;;;;;;;7.20;99.90;;;;;;5007751;28;20271;-80
2022/03/25 04:50:52;;;;;;;;;;;7.20;99.90;;;;;;5003787;28;19918;-80
2022/03/25 04:53:18;;;;;;;;;;;7.10;99.90;;;;;;5007310;28;19913;-80
2022/03/25 04:55:43;;;;;;;;;;;7.10;99.90;;;;;;5010666;28;20012;-80
2022/03/25 04:58:09;;;;;;;;;;;7.10;99.90;;;;;;5008017;28;19914;-80
2022/03/25 05:00:37;;;;;;;;;;;7.10;99.90;;;;;;5005850;28;19949;-80
2022/03/25 05:03:03;;;;;;;;;;;7.00;99.90;;;;;;5020601;28;19914;-80
2022/03/25 05:05:28;;;;;;;;;;;7.00;99.90;;;;;;5008772;28;20326;-80
2022/03/25 05:07:54;;;;;;;;;;;7.00;99.90;;;;;;5021454;28;19910;-80
2022/03/25 05:10:19;;;;;;;;;;;6.90;99.90;;;;;;5005475;28;19917;-80
2022/03/25 05:12:45;;;;;;;;;;;6.90;99.90;;;;;;5005952;28;19914;-80
2022/03/25 05:15:11;;;;;;;;;;;6.90;99.90;;;;;;5008625;28;19939;-80
2022/03/25 05:17:46;;;;;;;;;;;6.90;99.90;;;;;;5004937;28;19926;-81
2022/03/25 05:20:12;;;;;;;;;;;6.90;99.90;;;;;;5000663;28;19914;-80
2022/03/25 05:22:37;;;;;;;;;;;6.90;99.90;;;;;;5008171;28;19950;-80
2022/03/25 05:25:06;;;;;;;;;;;6.80;99.90;;;;;;5003584;28;19914;-79
2022/03/25 05:27:42;;;;;;;;;;;6.80;99.90;;;;;;5012305;28;19913;-80
2022/03/25 05:30:08;;;;;;;;;;;6.80;99.90;;;;;;5004216;28;19918;-79
2022/03/25 05:32:33;;;;;;;;;;;6.80;99.90;;;;;;5009004;28;19992;-79
2022/03/25 05:34:58;;;;;;;;;;;6.80;99.90;;;;;;4999193;28;19921;-79
2022/03/25 05:37:24;;;;;;;;;;;6.90;99.90;;;;;;5002376;28;19921;-79
2022/03/25 05:39:50;;;;;;;;;;;6.90;99.90;;;;;;4999480;28;20309;-79
2022/03/25 05:42:16;;;;;;;;;;;7.00;99.90;;;;;;4996744;28;20012;-79
2022/03/25 05:44:41;;;;;;;;;;;7.10;99.90;;;;;;4998659;28;20005;-79
2022/03/25 05:47:07;;;;;;;;;;;7.10;99.90;;;;;;4996874;28;19971;-80
2022/03/25 05:49:34;;;;;;;;;;;7.20;99.90;;;;;;5007791;28;19914;-79
2022/03/25 05:51:59;;;;;;;;;;;7.40;99.90;;;;;;5000346;28;19909;-80
2022/03/25 05:54:25;;;;;;;;;;;7.60;99.90;;;;;;4998425;28;19918;-80
2022/03/25 05:56:50;;;;;;;;;;;7.80;99.90;;;;;;5002428;28;19974;-80
2022/03/25 05:59:15;;;;;;;;;;;8.00;99.90;;;;;;5003324;28;19928;-79
2022/03/25 06:01:42;;;;;;;;;;;8.20;99.90;;;;;;5000575;28;19936;-79
2022/03/25 06:04:07;;;;;;;;;;;8.70;99.90;;;;;;5009367;28;19913;-80
2022/03/25 06:06:33;;;;;;;;;;;9.60;99.90;;;;;;4998833;28;20277;-79
2022/03/25 06:08:58;;;;;;;;;;;10.60;99.90;;;;;;4997966;28;20004;-79
2022/03/25 06:11:23;;;;;;;;;;;11.70;99.90;;;;;;5003012;28;19936;-80
2022/03/25 06:13:49;;;;;;;;;;;12.60;99.90;;;;;;5007277;28;20028;-79
2022/03/25 06:16:14;;;;;;;;;;;13.50;99.90;;;;;;5001886;28;19924;-80
2022/03/25 06:18:40;;;;;;;;;;;14.30;99.90;;;;;;5005307;28;19973;-80
2022/03/25 06:21:05;;;;;;;;;;;15.00;99.90;;;;;;5009977;28;19909;-80
2022/03/25 06:23:31;;;;;;;;;;;15.70;99.90;;;;;;5010705;28;19956;-81
2022/03/25 06:25:56;;;;;;;;;;;16.50;99.90;;;;;;5004646;28;19957;-81
2022/03/25 06:28:22;;;;;;;;;;;17.20;99.90;;;;;;5016453;28;19940;-80
2022/03/25 06:30:48;;;;;;;;;;;17.90;99.90;;;;;;5004744;28;19922;-79
2022/03/25 06:33:14;;;;;;;;;;;18.60;99.90;;;;;;5011516;28;20310;-80
2022/03/25 06:35:39;;;;;;;;;;;19.30;99.90;;;;;;5007766;28;20004;-82
2022/03/25 06:38:05;;;;;;;;;;;20.00;99.90;;;;;;4999586;28;19913;-82
2022/03/25 06:40:31;;;;;;;;;;;20.90;99.90;;;;;;5001136;28;19984;-82
2022/03/25 06:42:57;;;;;;;;;;;21.90;99.90;;;;;;5003739;28;19948;-81
2022/03/25 06:45:23;;;;;;;;;;;22.80;99.90;;;;;;4998932;28;19922;-81
2022/03/25 06:47:49;;;;;;;;;;;23.60;99.90;;;;;;4999113;28;19953;-81
2022/03/25 06:50:15;;;;;;;;;;;24.30;99.90;;;;;;4998912;28;19913;-81
2022/03/25 06:52:41;;;;;;;;;;;25.00;99.90;;;;;;5000921;28;20410;-80
2022/03/25 06:55:07;;;;;;;;;;;25.70;99.90;;;;;;5002696;28;19971;-81
2022/03/25 06:57:32;;;;;;;;;;;26.30;99.90;;;;;;5002614;28;19914;-81
2022/03/25 06:59:58;;;;;;;;;;;27.00;99.90;;;;;;5004215;28;19914;-80
2022/03/25 07:02:24;;;;;;;;;;;27.50;99.90;;;;;;5001847;28;19983;-82
2022/03/25 07:04:50;;;;;;;;;;;28.00;99.90;;;;;;5006009;28;19914;-82
2022/03/25 07:07:18;;;;;;;;;;;28.50;99.90;;;;;;5002399;28;19913;-82
2022/03/25 07:09:43;;;;;;;;;;;29.20;99.90;;;;;;5004614;28;20373;-82
2022/03/25 07:12:09;;;;;;;;;;;29.80;99.90;;;;;;4999816;28;19945;-82
2022/03/25 07:14:35;;;;;;;;;;;30.20;99.90;;;;;;5004749;28;19976;-82
2022/03/25 07:17:00;;;;;;;;;;;30.80;99.90;;;;;;5003832;28;20399;-82
2022/03/25 07:19:26;;;;;;;;;;;31.20;99.90;;;;;;5002877;28;19914;-82
2022/03/25 07:21:52;;;;;;;;;;;31.60;99.90;;;;;;4999461;28;20008;-82
2022/03/25 07:24:17;;;;;;;;;;;32.20;99.90;;;;;;5002324;28;19913;-83
2022/03/25 07:26:43;;;;;;;;;;;32.50;99.90;;;;;;5007645;28;19913;-81
2022/03/25 07:29:09;;;;;;;;;;;32.80;99.90;;;;;;5006405;28;20271;-82
2022/03/25 07:31:34;;;;;;;;;;;33.00;99.90;;;;;;4997993;28;19921;-82
2022/03/25 07:34:00;;;;;;;;;;;33.30;99.90;;;;;;5002565;28;20016;-82
2022/03/25 07:36:25;;;;;;;;;;;33.50;99.90;;;;;;5004488;28;19921;-82
2022/03/25 07:38:51;;;;;;;;;;;33.90;99.90;;;;;;5000690;28;19918;-83
2022/03/25 07:41:17;;;;;;;;;;;34.60;99.90;;;;;;5006228;28;19921;-82
2022/03/25 07:43:42;;;;;;;;;;;35.00;99.90;;;;;;5001411;28;19914;-82
2022/03/25 07:46:08;;;;;;;;;;;35.50;99.90;;;;;;5003055;28;19914;-82
2022/03/25 07:48:33;;;;;;;;;;;35.50;99.90;;;;;;5004646;28;19976;-82
2022/03/25 07:50:59;;;;;;;;;;;35.80;99.90;;;;;;5005086;28;19945;-81
2022/03/25 07:53:24;;;;;;;;;;;36.20;99.90;;;;;;5007533;28;19921;-82
2022/03/25 07:55:51;;;;;;;;;;;36.60;99.90;;;;;;5001165;28;19965;-82
2022/03/25 07:58:20;;;;;;;;;;;36.90;99.90;;;;;;5003434;28;20401;-81
2022/03/25 08:00:46;;;;;;;;;;;37.10;99.90;;;;;;5005683;28;19921;-82
2022/03/25 08:03:12;;;;;;;;;;;37.50;99.90;;;;;;5011022;28;19914;-82
2022/03/25 08:05:38;;;;;;;;;;;37.80;99.90;;;;;;5023667;28;19963;-82
2022/03/25 08:08:04;;;;;;;;;;;38.10;99.90;;;;;;5021340;28;19914;-82
2022/03/25 08:10:31;;;;;;;;;;;38.40;99.90;;;;;;5027567;28;19920;-82
2022/03/25 08:12:57;;;;;;;;;;;38.50;99.90;;;;;;5029153;28;19914;-83
2022/03/25 08:15:23;;;;;;;;;;;38.40;99.90;;;;;;5040623;28;20059;-82
2022/03/25 08:17:56;;;;;;;;;;;38.40;99.90;;;;;;5028413;28;19921;-83
2022/03/25 08:20:23;;;;;;;;;;;38.70;99.90;;;;;;5019854;28;19998;-82
2022/03/25 08:22:49;;;;;;;;;;;39.00;99.90;;;;;;5020121;28;19917;-83
2022/03/25 08:28:01;;;;;;;;;;;39.20;99.90;;;;;;5010778;28;19976;-83
2022/03/25 08:30:27;;;;;;;;;;;39.20;99.90;;;;;;5020108;28;19941;-82
2022/03/25 08:32:53;;;;;;;;;;;39.60;99.90;;;;;;5033854;28;19909;-83
2022/03/25 08:35:18;;;;;;;;;;;39.90;99.90;;;;;;5023715;28;19960;-83
2022/03/25 08:37:43;;;;;;;;;;;40.20;99.90;;;;;;5024987;28;19914;-83
2022/03/25 08:40:09;;;;;;;;;;;40.50;99.90;;;;;;5029266;28;19909;-83
2022/03/25 08:42:34;;;;;;;;;;;40.30;99.90;;;;;;5015976;28;19918;-83
2022/03/25 08:45:00;;;;;;;;;;;40.00;99.90;;;;;;5008659;28;19921;-83
2022/03/25 08:47:25;;;;;;;;;;;39.60;99.90;;;;;;5003374;28;20052;-83
2022/03/25 08:49:51;;;;;;;;;;;39.90;99.90;;;;;;5024034;28;19995;-82
2022/03/25 08:52:17;;;;;;;;;;;39.80;99.90;;;;;;5024430;28;19917;-82
2022/03/25 08:54:43;;;;;;;;;;;40.10;99.90;;;;;;5025131;28;20000;-82
2022/03/25 08:57:08;;;;;;;;;;;40.70;99.90;;;;;;5026747;28;19957;-83
2022/03/25 08:59:36;;;;;;;;;;;40.90;99.90;;;;;;5006810;28;19913;-82
2022/03/25 09:02:03;;;;;;;;;;;41.00;99.90;;;;;;5002609;28;19918;-83
2022/03/25 09:04:30;;;;;;;;;;;40.70;99.90;;;;;;5003590;28;19921;-83
2022/03/25 09:06:55;;;;;;;;;;;39.80;99.90;;;;;;5005124;28;19914;-83
2022/03/25 09:09:24;;;;;;;;;;;39.30;99.90;;;;;;5015002;28;20004;-83
2022/03/25 09:11:49;;;;;;;;;;;39.70;99.90;;;;;;5000294;28;19980;-82
2022/03/25 09:14:15;;;;;;;;;;;40.10;99.90;;;;;;5002033;28;19964;-80
2022/03/25 09:16:40;;;;;;;;;;;40.50;99.90;;;;;;5009459;28;19921;-80
2022/03/25 09:19:06;;;;;;;;;;;40.90;99.90;;;;;;5004526;28;19914;-82
2022/03/25 09:21:31;;;;;;;;;;;40.60;99.90;;;;;;5015092;28;19996;-83
2022/03/25 09:23:57;;;;;;;;;;;40.90;99.90;;;;;;5028178;28;19914;-86
2022/03/25 09:26:24;;;;;;;;;;;40.20;99.90;;;;;;5026580;28;19920;-83
2022/03/25 09:28:50;;;;;;;;;;;40.40;99.90;;;;;;5007940;28;19913;-83
2022/03/25 09:31:15;;;;;;;;;;;40.80;99.90;;;;;;5008989;28;19952;-83
2022/03/25 09:33:41;;;;;;;;;;;40.40;99.90;;;;;;5006958;28;19917;-84
2022/03/25 09:36:09;;;;;;;;;;;40.40;99.90;;;;;;5013012;28;20313;-83
2022/03/25 09:38:34;;;;;;;;;;;40.50;99.90;;;;;;5004668;28;19949;-83
2022/03/25 09:41:06;;;;;;;;;;;40.10;99.90;;;;;;5009049;28;19917;-83
2022/03/25 09:43:31;;;;;;;;;;;40.40;99.90;;;;;;5009207;28;19914;-83
2022/03/25 09:45:57;;;;;;;;;;;40.30;99.90;;;;;;5009033;28;19913;-83
2022/03/25 09:48:22;;;;;;;;;;;40.00;99.90;;;;;;5009265;28;20294;-82
2022/03/25 09:50:48;;;;;;;;;;;39.90;99.90;;;;;;5011488;28;20335;-83
2022/03/25 09:53:13;;;;;;;;;;;40.20;99.90;;;;;;5005716;28;19924;-83
2022/03/25 09:55:40;;;;;;;;;;;40.50;99.90;;;;;;5006248;28;19925;-83
2022/03/25 09:58:06;;;;;;;;;;;40.80;99.90;;;;;;5010299;28;19949;-83
2022/03/25 10:00:31;;;;;;;;;;;40.90;99.90;;;;;;5009543;28;19945;-85
2022/03/25 10:02:57;;;;;;;;;;;40.50;99.90;;;;;;5006606;28;20022;-84
2022/03/25 10:05:23;;;;;;;;;;;40.60;99.90;;;;;;5006682;28;20301;-83
2022/03/25 10:07:50;;;;;;;;;;;40.70;99.90;;;;;;5008377;28;19913;-84
2022/03/25 10:10:16;;;;;;;;;;;40.80;99.90;;;;;;5003711;28;19914;-83
2022/03/25 10:12:43;;;;;;;;;;;41.00;99.90;;;;;;5001485;28;19944;-83
2022/03/25 10:15:14;;;;;;;;;;;41.10;99.90;;;;;;5002358;28;20523;-83
2022/03/25 10:17:50;;;;;;;;;;;40.90;99.90;;;;;;5004653;28;20406;-83
2022/03/25 10:20:16;;;;;;;;;;;40.00;99.90;;;;;;5003483;28;19928;-83
2022/03/25 10:23:01;;;;;;;;;;;39.30;99.90;;;;;;4999330;28;19921;-83
2022/03/25 10:25:35;;;;;;;;;;;38.60;99.90;;;;;;5005408;28;19928;-82
2022/03/25 10:28:01;;;;;;;;;;;38.60;99.90;;;;;;5007771;28;19925;-83
2022/03/25 10:30:33;;;;;;;;;;;37.70;99.90;;;;;;5002490;28;19972;-83
2022/03/25 10:33:06;;;;;;;;;;;37.90;99.90;;;;;;5001827;28;19961;-83
2022/03/25 10:35:32;;;;;;;;;;;37.00;99.90;;;;;;4998524;28;19932;-83
2022/03/25 10:37:58;;;;;;;;;;;36.30;99.90;;;;;;5003843;28;19917;-82
2022/03/25 10:40:23;;;;;;;;;;;35.00;99.90;;;;;;5002420;28;19913;-82
2022/03/25 10:43:05;;;;;;;;;;;35.50;99.90;;;;;;5004967;28;20451;-83
2022/03/25 10:45:30;;;;;;;;;;;35.50;99.90;;;;;;5003243;28;19917;-83
2022/03/25 10:48:15;;;;;;;;;;;36.30;99.90;;;;;;5004731;28;19914;-83
2022/03/25 10:51:00;;;;;;;;;;;36.30;99.90;;;;;;5003732;28;20016;-80
2022/03/25 10:53:27;;;;;;;;;;;37.40;99.90;;;;;;5000549;28;19921;-80
2022/03/25 10:55:54;;;;;;;;;;;37.40;99.90;;;;;;5011760;28;20332;-82
2022/03/25 10:58:19;;;;;;;;;;;37.60;99.90;;;;;;5004400;28;19913;-83
2022/03/25 11:00:45;;;;;;;;;;;38.40;99.90;;;;;;5006260;28;20458;-83
2022/03/25 11:03:14;;;;;;;;;;;38.40;99.90;;;;;;5005363;28;19917;-82
2022/03/25 11:05:39;;;;;;;;;;;37.10;99.90;;;;;;5003136;28;19921;-82
2022/03/25 11:08:05;;;;;;;;;;;36.40;99.90;;;;;;5004213;28;20353;-82
2022/03/25 11:10:32;;;;;;;;;;;36.50;99.90;;;;;;5005393;28;19921;-83
2022/03/25 11:12:57;;;;;;;;;;;35.90;99.90;;;;;;5003448;28;20345;-83
2022/03/25 11:15:23;;;;;;;;;;;36.50;99.90;;;;;;5004582;28;19917;-83
2022/03/25 11:17:48;;;;;;;;;;;36.20;99.90;;;;;;5004202;28;19913;-83
2022/03/25 11:20:15;;;;;;;;;;;35.90;99.90;;;;;;5004610;28;19917;-83
2022/03/25 11:22:49;;;;;;;;;;;35.50;99.90;;;;;;5003954;28;19921;-83
2022/03/25 11:25:17;;;;;;;;;;;35.90;99.90;;;;;;5007935;28;19922;-83
2022/03/25 11:27:47;;;;;;;;;;;35.20;99.90;;;;;;5006375;28;19928;-83
2022/03/25 11:30:13;;;;;;;;;;;34.80;99.90;;;;;;5004217;28;20301;-83
2022/03/25 11:32:49;;;;;;;;;;;34.80;99.90;;;;;;5004701;28;19910;-83
2022/03/25 11:35:15;;;;;;;;;;;35.30;99.90;;;;;;5006086;28;19909;-83
2022/03/25 11:37:40;;;;;;;;;;;35.90;99.90;;;;;;5003919;28;20278;-83
2022/03/25 11:40:15;;;;;;;;;;;35.00;99.90;;;;;;5004498;28;19920;-83
2022/03/25 11:42:41;;;;;;;;;;;33.60;99.90;;;;;;5003635;28;20282;-83
2022/03/25 11:45:35;;;;;;;;;;;32.90;99.90;;;;;;5007497;28;19925;-84
2022/03/25 11:48:00;;;;;;;;;;;33.00;99.90;;;;;;5001366;28;20448;-83
2022/03/25 11:50:29;;;;;;;;;;;32.80;99.90;;;;;;5012006;28;19913;-83
2022/03/25 11:52:55;;;;;;;;;;;33.40;99.90;;;;;;5012136;28;20358;-83
2022/03/25 11:55:21;;;;;;;;;;;33.40;99.90;;;;;;5008864;28;19960;-83
2022/03/25 11:57:46;;;;;;;;;;;32.80;99.90;;;;;;5009022;28;19914;-83
2022/03/25 12:00:30;;;;;;;;;;;32.90;99.90;;;;;;5011769;28;20357;-83
2022/03/25 12:02:59;;;;;;;;;;;32.40;99.90;;;;;;5011886;28;19960;-84
2022/03/25 12:05:25;;;;;;;;;;;32.70;99.90;;;;;;5009882;28;19917;-83
2022/03/25 12:08:09;;;;;;;;;;;31.00;99.90;;;;;;5005709;28;19991;-83
2022/03/25 12:10:44;;;;;;;;;;;30.60;99.90;;;;;;5009347;28;19910;-82
2022/03/25 12:13:10;;;;;;;;;;;30.20;99.90;;;;;;5006769;28;19910;-82
2022/03/25 12:15:45;;;;;;;;;;;30.10;99.90;;;;;;5007596;28;19924;-82
2022/03/25 12:18:29;;;;;;;;;;;30.80;99.90;;;;;;5009945;28;19910;-80
2022/03/25 12:20:55;;;;;;;;;;;31.00;99.90;;;;;;5009459;28;19910;-83
2022/03/25 12:23:20;;;;;;;;;;;30.20;99.90;;;;;;5012929;28;19932;-82
2022/03/25 12:25:45;;;;;;;;;;;29.60;99.90;;;;;;4999230;28;19949;-83
2022/03/25 12:28:11;;;;;;;;;;;30.30;99.90;;;;;;5013759;28;19921;-83
2022/03/25 12:30:37;;;;;;;;;;;31.00;99.90;;;;;;5011162;28;20020;-83
2022/03/25 12:33:06;;;;;;;;;;;31.60;99.90;;;;;;5013795;28;19985;-83
2022/03/25 12:35:33;;;;;;;;;;;31.30;99.90;;;;;;5007337;28;19917;-82
2022/03/25 12:38:11;;;;;;;;;;;31.30;99.90;;;;;;5011437;28;19920;-83
2022/03/25 12:40:36;;;;;;;;;;;31.00;99.90;;;;;;5008032;28;19937;-82
2022/03/25 12:43:04;;;;;;;;;;;30.60;99.90;;;;;;5007293;28;19925;-83
2022/03/25 12:45:34;;;;;;;;;;;30.50;99.90;;;;;;5009799;28;19918;-82
2022/03/25 12:48:19;;;;;;;;;;;30.10;99.90;;;;;;5008911;28;19921;-82
2022/03/25 12:50:45;;;;;;;;;;;29.90;99.90;;;;;;5012588;28;19914;-82
2022/03/25 12:53:11;;;;;;;;;;;29.10;99.90;;;;;;5006230;28;19964;-82
2022/03/25 12:55:37;;;;;;;;;;;29.00;99.90;;;;;;5008673;28;19913;-82
2022/03/25 12:58:04;;;;;;;;;;;28.80;99.90;;;;;;5007867;28;19914;-83
2022/03/25 13:00:33;;;;;;;;;;;29.00;99.90;;;;;;5006261;28;19913;-82
2022/03/25 13:02:59;;;;;;;;;;;29.20;99.90;;;;;;5012236;28;19924;-83
2022/03/25 13:05:25;;;;;;;;;;;29.50;99.90;;;;;;5009621;28;19921;-82
2022/03/25 13:07:56;;;;;;;;;;;29.90;99.90;;;;;;5010442;28;19921;-84
2022/03/25 13:10:22;;;;;;;;;;;30.20;99.90;;;;;;5010389;28;19979;-83
2022/03/25 13:12:52;;;;;;;;;;;29.60;99.90;;;;;;5005358;28;19954;-81
2022/03/25 13:15:18;;;;;;;;;;;29.40;99.90;;;;;;5000806;28;19988;-83
2022/03/25 13:17:45;;;;;;;;;;;29.20;99.90;;;;;;5004111;28;19960;-82
2022/03/25 13:20:17;;;;;;;;;;;29.10;99.90;;;;;;5002831;28;19925;-83
2022/03/25 13:22:56;;;;;;;;;;;28.50;99.90;;;;;;5005508;28;19924;-82
2022/03/25 13:25:29;;;;;;;;;;;28.10;99.90;;;;;;5005136;28;20425;-83
2022/03/25 13:27:56;;;;;;;;;;;28.20;99.90;;;;;;5009739;28;20369;-82
2022/03/25 13:30:22;;;;;;;;;;;27.70;99.90;;;;;;5007051;28;19921;-83
2022/03/25 13:32:55;;;;;;;;;;;27.70;99.90;;;;;;5009295;28;19929;-82
2022/03/25 13:35:21;;;;;;;;;;;27.60;99.90;;;;;;5008874;28;19913;-83
2022/03/25 13:37:56;;;;;;;;;;;27.60;99.90;;;;;;5007571;28;19914;-83
2022/03/25 13:40:25;;;;;;;;;;;27.50;99.90;;;;;;5008437;28;19917;-84
2022/03/25 13:42:57;;;;;;;;;;;27.90;99.90;;;;;;5006458;28;20355;-83
2022/03/25 13:45:22;;;;;;;;;;;28.00;99.90;;;;;;4999738;28;20032;-83
2022/03/25 13:48:05;;;;;;;;;;;27.80;99.90;;;;;;5005791;28;20465;-83
2022/03/25 13:50:30;;;;;;;;;;;27.10;99.90;;;;;;5008119;28;19920;-83
2022/03/25 13:53:03;;;;;;;;;;;26.50;99.90;;;;;;5007255;28;19922;-82
2022/03/25 13:55:33;;;;;;;;;;;26.60;99.90;;;;;;5006059;28;19923;-82
2022/03/25 13:57:59;;;;;;;;;;;26.30;99.90;;;;;;5009010;28;19936;-82
2022/03/25 14:00:35;;;;;;;;;;;26.40;99.90;;;;;;5009779;28;19917;-83
2022/03/25 14:03:01;;;;;;;;;;;26.00;99.90;;;;;;5009836;28;19925;-81
2022/03/25 14:05:26;;;;;;;;;;;25.90;99.90;;;;;;5010076;28;20369;-82
2022/03/25 14:07:54;;;;;;;;;;;26.10;99.90;;;;;;5004630;28;19917;-82
2022/03/25 14:10:20;;;;;;;;;;;26.20;99.90;;;;;;5006559;28;19940;-82
2022/03/25 14:12:54;;;;;;;;;;;26.40;99.90;;;;;;5004852;28;20011;-81
2022/03/25 14:15:23;;;;;;;;;;;26.60;99.90;;;;;;5003676;28;20294;-82
2022/03/25 14:17:50;;;;;;;;;;;25.90;99.90;;;;;;5008554;28;20302;-82
2022/03/25 14:20:16;;;;;;;;;;;26.00;99.90;;;;;;5007504;28;19909;-82
2022/03/25 14:22:43;;;;;;;;;;;26.10;99.90;;;;;;5006059;28;19916;-81